Airport View

Enter AWOS ICAO identifier for current METAR.

ex. KFNL

KRGK 261216Z AUTO 00000KT 10SM CLR 17/15 A2998 RMK AO2

26 Jun 2019 12:39

Frequency: 119.25

Phone: 715-594-3763

Other Area AWOS: KSYN - KSGS - K21D - KLVN